createdAt,value
2023-05-24T05:29:47.726Z,99864.06
2023-05-24T05:32:15.791Z,99859.61
2023-05-24T05:34:44.242Z,99859.96
2023-05-24T05:37:12.674Z,99865.15
2023-05-24T05:39:41.648Z,99866.36
2023-05-24T05:42:13.002Z,99865.40
2023-05-24T05:44:40.708Z,99862.77
2023-05-24T05:47:09.608Z,99867.13
2023-05-24T05:49:37.466Z,99864.58
2023-05-24T05:52:14.084Z,99863.99
2023-05-24T05:55:02.025Z,99864.46
2023-05-24T06:01:16.087Z,99867.77
2023-05-24T06:04:07.806Z,99867.39
2023-05-24T06:07:06.096Z,99862.79
2023-05-24T06:10:36.059Z,99865.02
2023-05-24T06:18:02.482Z,99860.09
2023-05-24T06:25:50.802Z,99862.59
2023-05-24T06:32:35.740Z,99860.88
2023-05-24T06:35:59.009Z,99856.77
2023-05-24T06:38:56.568Z,99856.77
2023-05-24T06:41:24.099Z,99855.63
2023-05-24T06:43:51.766Z,99851.52
2023-05-24T06:46:19.256Z,99850.91
2023-05-24T06:48:48.028Z,99846.23
2023-05-24T06:51:18.792Z,99850.05
2023-05-24T06:53:49.394Z,99852.05
2023-05-24T06:56:19.095Z,99854.84
2023-05-24T06:58:52.522Z,99854.37
2023-05-24T07:01:24.930Z,99854.68
2023-05-24T07:05:08.246Z,99849.46
2023-05-24T07:12:56.520Z,99846.83
2023-05-24T07:16:51.878Z,99847.15
2023-05-24T07:19:43.701Z,99846.59
2023-05-24T07:26:36.208Z,99852.98
2023-05-24T07:29:22.937Z,99854.98
2023-05-24T07:31:52.572Z,99852.31
2023-05-24T07:34:23.314Z,99856.04
2023-05-24T07:36:59.268Z,99860.42
2023-05-24T07:39:27.885Z,99856.27
2023-05-24T07:41:55.777Z,99854.28
2023-05-24T07:44:24.509Z,99854.02
2023-05-24T07:46:52.423Z,99850.06
2023-05-24T07:49:20.101Z,99852.42
2023-05-24T07:51:48.725Z,99848.42
2023-05-24T07:54:16.377Z,99848.47
2023-05-24T07:56:46.155Z,99845.58
2023-05-24T07:59:16.226Z,99842.50
2023-05-24T08:01:44.174Z,99839.55
2023-05-24T08:04:28.784Z,99837.02
2023-05-24T08:07:33.959Z,99838.79
2023-05-24T08:13:54.086Z,99828.38
2023-05-24T08:17:03.728Z,99826.40
2023-05-24T08:20:39.981Z,99828.96
2023-05-24T08:27:55.947Z,99831.08
2023-05-24T08:34:42.476Z,99831.84
2023-05-24T08:37:53.530Z,99828.92
2023-05-24T08:40:30.473Z,99826.55
2023-05-24T08:43:13.494Z,99822.56
2023-05-24T09:03:59.959Z,99812.20
2023-05-24T09:07:10.893Z,99811.20
2023-05-24T09:10:09.893Z,99815.33
2023-05-24T09:12:39.322Z,99815.55
2023-05-24T09:15:33.014Z,99816.80
2023-05-24T09:18:16.082Z,99819.09
2023-05-24T09:20:44.571Z,99816.83
2023-05-24T09:23:16.177Z,99816.15
2023-05-24T09:25:48.456Z,99815.17
2023-05-24T09:28:52.180Z,99816.98
2023-05-24T09:31:19.997Z,99823.10
2023-05-24T09:33:48.604Z,99816.08
2023-05-24T09:36:17.013Z,99819.77
2023-05-24T09:38:44.569Z,99821.27
2023-05-24T09:41:12.489Z,99820.91
2023-05-24T09:43:51.865Z,99820.55
2023-05-24T09:46:23.096Z,99824.63
2023-05-24T09:48:57.849Z,99824.77
2023-05-24T09:51:25.715Z,99829.77
2023-05-24T09:53:56.988Z,99826.20
2023-05-24T09:56:25.590Z,99831.16
2023-05-24T09:58:55.045Z,99835.64
2023-05-24T10:01:24.309Z,99831.04
2023-05-24T10:03:53.741Z,99825.98
2023-05-24T10:06:21.493Z,99828.11
2023-05-24T10:08:49.534Z,99828.11
2023-05-24T10:11:17.209Z,99832.66
2023-05-24T10:13:44.831Z,99831.27
2023-05-24T10:16:13.010Z,99834.45
2023-05-24T10:18:41.286Z,99835.52
2023-05-24T10:21:09.736Z,99831.44
2023-05-24T10:23:38.648Z,99830.04
2023-05-24T10:26:08.776Z,99829.23
2023-05-24T10:28:42.304Z,99829.05
2023-05-24T10:31:16.103Z,99829.28
2023-05-24T10:33:45.180Z,99830.09
2023-05-24T10:36:14.334Z,99826.48
2023-05-24T10:38:42.060Z,99822.71
2023-05-24T10:41:09.746Z,99814.55
2023-05-24T10:43:37.886Z,99814.77
2023-05-24T10:46:06.115Z,99813.31
2023-05-24T10:48:43.139Z,99813.68
2023-05-24T10:51:40.216Z,99808.12
2023-05-24T10:54:13.065Z,99811.27
2023-05-24T10:56:50.778Z,99810.14
2023-05-24T10:59:28.430Z,99809.33
2023-05-24T11:01:59.305Z,99809.08
2023-05-24T11:04:28.921Z,99808.08
2023-05-24T11:07:06.449Z,99805.80
2023-05-24T11:09:34.122Z,99804.98
2023-05-24T11:12:10.869Z,99804.72
2023-05-24T11:14:40.026Z,99807.77
2023-05-24T11:17:07.839Z,99807.30
2023-05-24T11:19:40.375Z,99810.88
2023-05-24T11:22:08.233Z,99806.66
2023-05-24T11:24:36.433Z,99804.14
2023-05-24T11:27:04.514Z,99805.00
2023-05-24T11:29:32.060Z,99799.86
2023-05-24T11:32:05.182Z,99799.93
2023-05-24T11:34:33.526Z,99798.44
2023-05-24T11:37:06.294Z,99795.11
2023-05-24T11:39:35.700Z,99796.92
2023-05-24T11:42:09.756Z,99793.73
2023-05-24T11:44:40.090Z,99791.11
2023-05-24T11:47:08.383Z,99785.92
2023-05-24T11:49:36.112Z,99784.66
2023-05-24T11:52:03.798Z,99788.84
2023-05-24T11:54:35.109Z,99784.45
2023-05-24T11:57:03.665Z,99783.30
2023-05-24T11:59:31.877Z,99776.48
2023-05-24T12:02:02.136Z,99772.77
2023-05-24T12:04:30.025Z,99769.10
2023-05-24T12:06:57.759Z,99765.52
2023-05-24T12:09:25.595Z,99757.52
2023-05-24T12:11:53.467Z,99754.48
2023-05-24T12:14:27.171Z,99761.63
2023-05-24T12:16:56.389Z,99757.68
2023-05-24T12:19:33.711Z,99760.52
2023-05-24T12:22:08.399Z,99759.52
2023-05-24T12:24:37.467Z,99756.94
2023-05-24T12:27:08.930Z,99753.14
2023-05-24T12:29:38.836Z,99754.39
2023-05-24T12:32:12.340Z,99750.63
2023-05-24T12:34:44.373Z,99748.66
2023-05-24T12:37:12.952Z,99748.82
2023-05-24T12:39:43.029Z,99749.58
2023-05-24T12:42:12.343Z,99752.53
2023-05-24T12:44:40.349Z,99756.29
2023-05-24T12:47:08.872Z,99755.34
2023-05-24T12:49:36.784Z,99759.39
2023-05-24T12:52:04.721Z,99755.77
2023-05-24T12:54:32.279Z,99758.20
2023-05-24T12:57:03.359Z,99754.83
2023-05-24T12:59:31.155Z,99752.80
2023-05-24T13:01:58.859Z,99751.33
2023-05-24T13:04:27.642Z,99748.17
2023-05-24T13:06:55.685Z,99746.14
2023-05-24T13:09:23.891Z,99745.19
2023-05-24T13:11:52.917Z,99743.30
2023-05-24T13:14:20.923Z,99750.65
2023-05-24T13:16:48.750Z,99756.02
2023-05-24T13:19:17.515Z,99758.13
2023-05-24T13:21:45.683Z,99756.52
2023-05-24T13:24:16.205Z,99758.87
2023-05-24T13:26:45.097Z,99756.52
2023-05-24T13:31:44.048Z,99755.84
2023-05-24T13:34:12.078Z,99751.88
2023-05-24T13:36:39.649Z,99749.13
2023-05-24T13:41:41.659Z,99762.14
2023-05-24T13:44:10.427Z,99761.33
2023-05-24T13:46:39.085Z,99758.45
2023-05-24T13:49:07.613Z,99758.21
2023-05-24T13:51:35.880Z,99761.42
2023-05-24T13:54:03.756Z,99762.96
2023-05-24T13:56:33.007Z,99760.14
2023-05-24T13:59:01.762Z,99769.39
2023-05-24T14:01:29.577Z,99770.63
2023-05-24T14:03:57.200Z,99771.92
2023-05-24T14:06:24.745Z,99763.98
2023-05-24T14:08:52.505Z,99755.96
2023-05-24T14:11:20.357Z,99757.51
2023-05-24T14:16:19.475Z,99760.21
2023-05-24T14:18:49.387Z,99759.97
2023-05-24T14:21:18.395Z,99754.88
2023-05-24T14:23:45.959Z,99756.98
2023-05-24T14:26:13.889Z,99755.40
2023-05-24T14:28:41.618Z,99755.82
2023-05-24T14:31:09.256Z,99755.51
2023-05-24T14:33:38.009Z,99756.88
2023-05-24T14:36:06.474Z,99760.45
2023-05-24T14:38:34.412Z,99756.15
2023-05-24T14:41:02.727Z,99754.27
2023-05-24T14:43:30.410Z,99755.70
2023-05-24T14:45:57.952Z,99751.65
2023-05-24T14:48:25.574Z,99750.55
2023-05-24T14:50:53.112Z,99752.69
2023-05-24T14:53:20.891Z,99751.71
2023-05-24T14:55:48.888Z,99750.33
2023-05-24T14:58:16.559Z,99748.71
2023-05-24T15:00:44.540Z,99750.20
2023-05-24T15:03:14.620Z,99748.41
2023-05-24T15:05:43.211Z,99746.02
2023-05-24T15:08:11.717Z,99749.22
2023-05-24T15:10:40.185Z,99752.86
2023-05-24T15:13:08.287Z,99760.10
2023-05-24T15:15:36.210Z,99760.28
2023-05-24T15:18:04.263Z,99763.23
2023-05-24T15:20:35.782Z,99766.16
2023-05-24T15:23:03.793Z,99766.03
2023-05-24T15:25:31.348Z,99769.70
2023-05-24T15:27:58.929Z,99772.40
2023-05-24T15:30:26.703Z,99773.86
2023-05-24T15:32:54.358Z,99771.73
2023-05-24T15:35:21.909Z,99772.20
2023-05-24T15:37:49.637Z,99772.85
2023-05-24T15:40:18.857Z,99769.48
2023-05-24T15:42:46.707Z,99768.63
2023-05-24T15:45:14.306Z,99765.73
2023-05-24T15:47:42.024Z,99767.10
2023-05-24T15:50:10.432Z,99764.02
2023-05-24T15:52:38.088Z,99771.92
2023-05-24T15:55:06.348Z,99772.46
2023-05-24T15:57:33.931Z,99775.11
2023-05-24T16:00:01.689Z,99778.87
2023-05-24T16:02:39.741Z,99775.92
2023-05-24T16:05:08.080Z,99771.92
2023-05-24T16:07:35.608Z,99767.97
2023-05-24T16:10:03.365Z,99764.84
2023-05-24T16:12:30.950Z,99770.92
2023-05-24T16:14:59.988Z,99778.09
2023-05-24T16:17:27.620Z,99779.83
2023-05-24T16:19:55.431Z,99790.10
2023-05-24T16:22:24.042Z,99798.11
2023-05-24T16:24:51.903Z,99800.58
2023-05-24T16:27:19.497Z,99800.20
2023-05-24T16:29:48.331Z,99801.36
2023-05-24T16:32:15.967Z,99801.45
2023-05-24T16:34:56.124Z,99803.19
2023-05-24T16:37:24.807Z,99801.60
2023-05-24T16:39:52.344Z,99802.86
2023-05-24T16:42:20.095Z,99796.61
2023-05-24T16:44:48.080Z,99796.36
2023-05-24T16:47:15.686Z,99797.42
2023-05-24T16:49:43.231Z,99797.08
2023-05-24T16:52:10.815Z,99804.85
2023-05-24T16:54:38.390Z,99819.52
2023-05-24T16:57:06.818Z,99824.58
2023-05-24T16:59:34.441Z,99835.11
2023-05-24T17:02:02.217Z,99844.68
2023-05-24T17:04:29.964Z,99849.73
2023-05-24T17:06:57.541Z,99852.16
2023-05-24T17:09:25.299Z,99850.76
2023-05-24T17:11:52.812Z,99852.14
2023-05-24T17:14:20.465Z,99860.18
2023-05-24T17:16:48.223Z,99873.02
2023-05-24T17:19:15.983Z,99883.90
2023-05-24T17:21:43.505Z,99893.41
2023-05-24T17:24:11.346Z,99900.31
2023-05-24T17:26:40.757Z,99903.89
2023-05-24T17:29:09.166Z,99902.39
2023-05-24T17:31:37.590Z,99904.57
2023-05-24T17:34:05.658Z,99908.13
2023-05-24T17:36:33.866Z,99908.51
2023-05-24T17:39:01.601Z,99909.41
2023-05-24T17:41:29.169Z,99911.52
2023-05-24T17:43:56.753Z,99911.36
2023-05-24T17:46:24.387Z,99913.31
2023-05-24T17:48:52.286Z,99917.34
2023-05-24T17:51:20.013Z,99913.95
2023-05-24T17:53:48.124Z,99916.20
2023-05-24T17:56:15.887Z,99917.63
2023-05-24T17:58:46.111Z,99920.38
2023-05-24T18:01:15.523Z,99920.84
2023-05-24T18:03:43.266Z,99917.42
2023-05-24T18:06:11.371Z,99921.10
2023-05-24T18:08:42.642Z,99924.11
2023-05-24T18:11:11.442Z,99923.52
2023-05-24T18:13:39.716Z,99923.36
2023-05-24T18:16:09.778Z,99925.66
2023-05-24T18:18:38.087Z,99927.19
2023-05-24T18:21:05.880Z,99926.19
2023-05-24T18:23:37.697Z,99926.48
2023-05-24T18:26:09.721Z,99925.44
2023-05-24T18:28:38.014Z,99924.36
2023-05-24T18:31:08.777Z,99928.27
2023-05-24T18:33:39.662Z,99931.88
2023-05-24T18:36:07.758Z,99931.23
2023-05-24T18:38:35.818Z,99935.23
2023-05-24T18:41:09.596Z,99938.15
2023-05-24T18:43:37.440Z,99943.50
2023-05-24T18:46:05.016Z,99945.85
2023-05-24T18:48:32.682Z,99941.00
2023-05-24T18:51:00.249Z,99937.05
2023-05-24T18:53:27.994Z,99934.58
2023-05-24T18:55:55.688Z,99933.00
2023-05-24T18:58:23.376Z,99933.36
2023-05-24T19:00:51.132Z,99932.14
2023-05-24T19:03:18.848Z,99928.52
2023-05-24T19:05:46.735Z,99930.92
2023-05-24T19:08:14.413Z,99932.56
2023-05-24T19:10:41.924Z,99934.93
2023-05-24T19:13:09.649Z,99938.44
2023-05-24T19:15:37.533Z,99934.36
2023-05-24T19:18:06.164Z,99933.34
2023-05-24T19:20:33.965Z,99932.15
2023-05-24T19:23:01.765Z,99935.33
2023-05-24T19:25:30.586Z,99938.02
2023-05-24T19:28:00.444Z,99936.12
2023-05-24T19:30:28.625Z,99934.73
2023-05-24T19:32:56.286Z,99934.56
2023-05-24T19:35:24.148Z,99931.37
2023-05-24T19:37:52.699Z,99933.90
2023-05-24T19:40:20.703Z,99931.50
2023-05-24T19:42:48.368Z,99931.86
2023-05-24T19:45:16.524Z,99927.77
2023-05-24T19:47:45.378Z,99926.66
2023-05-24T19:50:13.059Z,99920.49
2023-05-24T19:52:40.798Z,99915.56
2023-05-24T19:55:08.806Z,99913.00
2023-05-24T19:57:36.429Z,99909.87
2023-05-24T20:00:04.933Z,99911.78
2023-05-24T20:02:38.842Z,99905.75
2023-05-24T20:05:07.386Z,99907.30
2023-05-24T20:07:35.118Z,99912.70
2023-05-24T20:10:05.315Z,99918.35
2023-05-24T20:12:34.721Z,99918.55
2023-05-24T20:15:02.451Z,99918.74
2023-05-24T20:17:30.167Z,99913.20
2023-05-24T20:19:57.920Z,99914.23
2023-05-24T20:22:25.804Z,99913.45
2023-05-24T20:24:53.432Z,99915.80
2023-05-24T20:27:21.577Z,99910.55
2023-05-24T20:29:49.174Z,99911.96
2023-05-24T20:32:17.188Z,99908.79
2023-05-24T20:34:44.812Z,99909.84
2023-05-24T20:37:12.454Z,99912.48
2023-05-24T20:39:40.045Z,99914.80
2023-05-24T20:42:08.456Z,99914.67
2023-05-24T20:44:35.979Z,99910.83
2023-05-24T20:47:03.814Z,99912.09
2023-05-24T20:49:31.618Z,99914.59
2023-05-24T20:51:59.288Z,99911.67
2023-05-24T20:54:26.940Z,99915.25
2023-05-24T20:56:54.541Z,99912.54
2023-05-24T20:59:22.106Z,99915.64
2023-05-24T21:01:49.772Z,99916.70
2023-05-24T21:04:17.671Z,99921.40
2023-05-24T21:06:45.438Z,99922.41
2023-05-24T21:09:13.184Z,99922.61
2023-05-24T21:11:40.698Z,99924.61
2023-05-24T21:14:08.198Z,99926.34
2023-05-24T21:16:36.766Z,99924.55
2023-05-24T21:19:04.477Z,99923.88
2023-05-24T21:21:32.342Z,99928.79
2023-05-24T21:24:00.139Z,99932.30
2023-05-24T21:26:27.727Z,99933.79
2023-05-24T21:28:55.354Z,99935.89
2023-05-24T21:31:23.019Z,99948.63
2023-05-24T21:33:50.863Z,99956.70
2023-05-24T21:36:18.739Z,99958.58
2023-05-24T21:38:46.296Z,99956.60
2023-05-24T21:41:13.829Z,99951.27
2023-05-24T21:43:42.115Z,99950.30
2023-05-24T21:46:09.765Z,99951.70
2023-05-24T21:48:37.336Z,99953.69
2023-05-24T21:51:05.034Z,99953.35
2023-05-24T21:53:32.797Z,99951.35
2023-05-24T21:56:00.500Z,99949.95
2023-05-24T21:58:28.096Z,99950.68
2023-05-24T22:00:55.810Z,99948.50
2023-05-24T22:03:23.538Z,99944.55
2023-05-24T22:05:51.397Z,99943.02
2023-05-24T22:08:18.982Z,99942.44
2023-05-24T22:10:46.480Z,99946.23
2023-05-24T22:13:13.996Z,99945.99
2023-05-24T22:15:41.662Z,99948.15
2023-05-24T22:18:09.341Z,99947.48
2023-05-24T22:20:37.142Z,99947.27
2023-05-24T22:23:04.796Z,99940.01
2023-05-24T22:25:32.435Z,99940.65
2023-05-24T22:28:00.179Z,99942.21
2023-05-24T22:30:28.009Z,99945.69
2023-05-24T22:32:56.643Z,99957.64
2023-05-24T22:35:24.227Z,99961.19
2023-05-24T22:37:51.832Z,99966.52
2023-05-24T22:40:19.425Z,99968.45
2023-05-24T22:42:46.933Z,99963.52
2023-05-24T22:45:15.396Z,99964.19
2023-05-24T22:47:43.526Z,99968.52
2023-05-24T22:50:11.469Z,99968.59
2023-05-24T22:52:42.901Z,99968.27
2023-05-24T22:55:13.344Z,99969.42
2023-05-24T22:57:41.096Z,99971.17
2023-05-24T23:00:09.583Z,99973.71
2023-05-24T23:02:37.226Z,99968.02
2023-05-24T23:05:05.541Z,99962.99
2023-05-24T23:07:33.152Z,99955.33
2023-05-24T23:10:00.685Z,99957.08
2023-05-24T23:12:28.373Z,99950.77
2023-05-24T23:14:58.429Z,99947.05
2023-05-24T23:17:26.543Z,99945.40
2023-05-24T23:19:54.314Z,99941.66
2023-05-24T23:22:24.093Z,99944.42
2023-05-24T23:24:51.855Z,99948.78
2023-05-24T23:27:20.198Z,99953.69
2023-05-24T23:29:47.821Z,99956.40
2023-05-24T23:32:15.757Z,99956.97
2023-05-24T23:34:43.353Z,99957.37
2023-05-24T23:37:11.066Z,99957.23
2023-05-24T23:39:38.715Z,99955.41
2023-05-24T23:42:06.834Z,99956.91
2023-05-24T23:44:34.499Z,99959.91
2023-05-24T23:47:02.441Z,99966.21
2023-05-24T23:49:30.406Z,99966.27
2023-05-24T23:51:57.947Z,99973.27
2023-05-24T23:54:25.522Z,99971.98
2023-05-24T23:56:53.260Z,99963.36
2023-05-24T23:59:21.059Z,99965.60
